Terminal Aerodrome Forecast
Issued by NWS Boston, MA

Home | Current Version | Previous Version | Text Only | Print | Product List | Glossary Off
Versions: 1 2 3 4 5 6 7 8 9 10 11 12 13 14 15 16 17 18 19 20 21 22 23 24 25 26 27 28 29 30 31 32 33 34 35 36 37 38 39 40 41 42 43 44 45 46
000 FTUS41 KBOX 180229 AAA TAFBDL TAF AMD KBDL 180229Z 1802/1906 VRB03KT P6SM FEW250 FM180700 00000KT 3SM BR SKC FM180900 00000KT 2SM BR SKC FM181100 00000KT 3SM BR SKC FM181200 VRB03KT P6SM FEW250 FM181600 27007KT P6SM FEW250 FM181800 28012G22KT P6SM SCT060 FM182100 30018G26KT P6SM BKN070=

USA.gov is the U.S. government's official web portal to all federal, state and local government web resources and services.